createdAt,value
2024-04-24T00:01:59.168Z,100065.33
2024-04-24T00:04:26.772Z,100067.44
2024-04-24T00:06:54.329Z,100064.18
2024-04-24T00:09:21.909Z,100059.53
2024-04-24T00:11:49.592Z,100054.82
2024-04-24T00:14:17.397Z,100054.29
2024-04-24T00:16:45.632Z,100046.19
2024-04-24T00:19:13.351Z,100038.84
2024-04-24T00:21:40.957Z,100032.73
2024-04-24T00:24:08.513Z,100033.38
2024-04-24T00:26:35.997Z,100025.94
2024-04-24T00:29:03.576Z,100022.38
2024-04-24T00:31:31.061Z,100023.76
2024-04-24T00:33:58.708Z,100019.66
2024-04-24T00:36:30.560Z,100016.15
2024-04-24T00:38:58.122Z,100011.71
2024-04-24T00:41:25.711Z,100014.23
2024-04-24T00:43:53.526Z,100018.48
2024-04-24T00:46:22.674Z,100018.32
2024-04-24T00:48:50.638Z,100011.95
2024-04-24T00:51:18.271Z,100010.27
2024-04-24T00:53:45.883Z,100006.48
2024-04-24T00:56:13.446Z,100005.98
2024-04-24T00:58:40.950Z,100006.66
2024-04-24T01:01:08.563Z,100008.58
2024-04-24T01:03:36.185Z,99999.29
2024-04-24T01:06:04.059Z,99995.73
2024-04-24T01:08:31.660Z,99984.46
2024-04-24T01:11:00.084Z,99982.78
2024-04-24T01:13:27.945Z,99977.02
2024-04-24T01:15:57.467Z,99962.63
2024-04-24T01:18:25.118Z,99959.50
2024-04-24T01:20:52.926Z,99956.52
2024-04-24T01:23:40.955Z,99954.41
2024-04-24T01:26:50.206Z,99946.05
2024-04-24T01:29:18.079Z,99944.55
2024-04-24T01:31:45.988Z,99947.80
2024-04-24T01:34:14.090Z,99942.48
2024-04-24T01:36:41.988Z,99943.91
2024-04-24T01:39:09.639Z,99931.77
2024-04-24T01:41:37.294Z,99933.19
2024-04-24T01:44:05.120Z,99920.60
2024-04-24T01:46:32.708Z,99924.02
2024-04-24T01:49:00.276Z,99918.54
2024-04-24T01:51:27.988Z,99917.03
2024-04-24T01:53:56.362Z,99915.42
2024-04-24T01:56:24.025Z,99913.79
2024-04-24T01:58:51.850Z,99914.38
2024-04-24T02:01:19.505Z,99902.09
2024-04-24T02:03:47.079Z,99898.57
2024-04-24T02:06:14.671Z,99901.46
2024-04-24T02:08:42.257Z,99893.40
2024-04-24T02:11:09.871Z,99890.27
2024-04-24T02:13:37.484Z,99887.96
2024-04-24T02:16:05.089Z,99888.68
2024-04-24T02:18:32.717Z,99879.91
2024-04-24T02:21:05.964Z,99876.20
2024-04-24T02:23:35.205Z,99876.33
2024-04-24T02:26:08.929Z,99877.65
2024-04-24T02:28:36.623Z,99869.64
2024-04-24T02:31:04.113Z,99867.27
2024-04-24T02:33:31.838Z,99862.10
2024-04-24T02:35:59.462Z,99858.32
2024-04-24T02:38:27.080Z,99854.70
2024-04-24T02:40:54.764Z,99853.35
2024-04-24T02:43:22.290Z,99853.40
2024-04-24T02:45:49.878Z,99847.23
2024-04-24T02:48:17.581Z,99843.13
2024-04-24T02:50:45.192Z,99836.02
2024-04-24T02:53:12.830Z,99833.33
2024-04-24T02:55:40.414Z,99825.29
2024-04-24T02:58:07.977Z,99824.00
2024-04-24T03:00:35.540Z,99822.73
2024-04-24T03:03:03.800Z,99821.10
2024-04-24T03:05:31.618Z,99821.05
2024-04-24T03:07:59.388Z,99821.34
2024-04-24T03:10:27.039Z,99813.98
2024-04-24T03:12:54.632Z,99808.90
2024-04-24T03:15:22.198Z,99803.86
2024-04-24T03:17:49.858Z,99803.42
2024-04-24T03:20:17.593Z,99802.02
2024-04-24T03:22:45.131Z,99800.98
2024-04-24T03:25:12.699Z,99799.03
2024-04-24T03:27:40.359Z,99795.48
2024-04-24T03:30:08.441Z,99789.21
2024-04-24T03:32:36.236Z,99788.20
2024-04-24T03:35:04.867Z,99782.09
2024-04-24T03:37:32.446Z,99777.05
2024-04-24T03:40:00.004Z,99772.72
2024-04-24T03:42:27.522Z,99769.81
2024-04-24T03:44:55.092Z,99765.81
2024-04-24T03:47:22.702Z,99762.30
2024-04-24T03:49:50.351Z,99755.55
2024-04-24T03:52:18.488Z,99760.31
2024-04-24T03:54:46.095Z,99751.83
2024-04-24T03:57:13.631Z,99754.48
2024-04-24T03:59:41.199Z,99749.04
2024-04-24T04:02:09.065Z,99753.54
2024-04-24T04:04:36.685Z,99748.20
2024-04-24T04:07:04.232Z,99748.30
2024-04-24T04:09:31.886Z,99744.94
2024-04-24T04:11:59.655Z,99741.85
2024-04-24T04:14:27.184Z,99736.77
2024-04-24T04:16:54.824Z,99738.44
2024-04-24T04:19:22.499Z,99739.25
2024-04-24T04:21:52.054Z,99726.10
2024-04-24T04:24:19.658Z,99728.91
2024-04-24T04:26:48.140Z,99719.71
2024-04-24T04:29:15.658Z,99712.56
2024-04-24T04:31:43.461Z,99711.89
2024-04-24T04:34:11.174Z,99710.91
2024-04-24T04:36:38.729Z,99709.87
2024-04-24T04:39:06.373Z,99708.35
2024-04-24T04:41:33.938Z,99701.08
2024-04-24T04:44:01.640Z,99703.33
2024-04-24T04:46:29.276Z,99693.44
2024-04-24T04:48:57.029Z,99694.36
2024-04-24T04:51:25.037Z,99701.31
2024-04-24T04:53:52.845Z,99700.19
2024-04-24T04:56:20.801Z,99699.86
2024-04-24T04:58:48.839Z,99696.95
2024-04-24T05:01:16.610Z,99692.15
2024-04-24T05:03:44.317Z,99688.77
2024-04-24T05:06:12.027Z,99690.73
2024-04-24T05:08:40.461Z,99685.82
2024-04-24T05:11:08.067Z,99686.47
2024-04-24T05:13:36.170Z,99681.73
2024-04-24T05:16:04.919Z,99680.15
2024-04-24T05:18:32.570Z,99675.69
2024-04-24T05:21:01.303Z,99668.70
2024-04-24T05:23:28.916Z,99664.48
2024-04-24T05:25:56.916Z,99660.39
2024-04-24T05:28:44.909Z,99652.90
2024-04-24T05:31:13.774Z,99645.38
2024-04-24T05:33:41.548Z,99645.95
2024-04-24T05:36:09.234Z,99644.00
2024-04-24T05:38:36.934Z,99641.97
2024-04-24T05:41:04.654Z,99644.30
2024-04-24T05:43:32.302Z,99636.77
2024-04-24T05:46:00.172Z,99630.20
2024-04-24T05:48:27.808Z,99624.85
2024-04-24T05:50:56.095Z,99623.64
2024-04-24T05:53:23.677Z,99618.13
2024-04-24T05:55:51.722Z,99621.31
2024-04-24T05:58:19.429Z,99618.52
2024-04-24T06:00:47.074Z,99620.66
2024-04-24T06:03:15.919Z,99622.35
2024-04-24T06:05:43.574Z,99624.91
2024-04-24T06:08:11.388Z,99620.48
2024-04-24T06:10:39.029Z,99622.55
2024-04-24T06:13:06.680Z,99617.77
2024-04-24T06:15:35.900Z,99620.83
2024-04-24T06:18:04.002Z,99614.01
2024-04-24T06:20:31.756Z,99611.80
2024-04-24T06:23:00.415Z,99609.35
2024-04-24T06:25:28.331Z,99610.00
2024-04-24T06:27:55.918Z,99614.93
2024-04-24T06:30:23.433Z,99605.65
2024-04-24T06:32:51.527Z,99611.18
2024-04-24T06:35:23.152Z,99605.77
2024-04-24T06:37:54.403Z,99603.60
2024-04-24T06:40:22.113Z,99599.70
2024-04-24T06:42:49.895Z,99592.45
2024-04-24T06:45:17.506Z,99583.10
2024-04-24T06:47:46.352Z,99579.70
2024-04-24T06:50:14.064Z,99582.15
2024-04-24T06:52:41.696Z,99576.10
2024-04-24T06:55:09.251Z,99571.98
2024-04-24T06:57:36.927Z,99564.71
2024-04-24T07:00:04.968Z,99563.64
2024-04-24T07:02:32.778Z,99559.09
2024-04-24T07:05:00.503Z,99556.95
2024-04-24T07:07:28.056Z,99552.92
2024-04-24T07:09:55.708Z,99551.45
2024-04-24T07:12:23.403Z,99546.17
2024-04-24T07:14:50.998Z,99539.42
2024-04-24T07:17:18.637Z,99537.35
2024-04-24T07:19:46.313Z,99532.19
2024-04-24T07:22:13.903Z,99530.09
2024-04-24T07:24:43.242Z,99527.83
2024-04-24T07:27:11.011Z,99523.28
2024-04-24T07:29:39.752Z,99527.05
2024-04-24T07:32:07.454Z,99521.52
2024-04-24T07:34:35.083Z,99520.48
2024-04-24T07:37:02.652Z,99515.50
2024-04-24T07:39:30.326Z,99513.78
2024-04-24T07:41:58.002Z,99508.63
2024-04-24T07:44:25.596Z,99502.91
2024-04-24T07:46:53.364Z,99499.64
2024-04-24T07:49:20.915Z,99492.56
2024-04-24T07:51:48.558Z,99487.98
2024-04-24T07:54:16.300Z,99484.64
2024-04-24T07:56:44.067Z,99489.74
2024-04-24T07:59:11.793Z,99485.96
2024-04-24T08:01:39.396Z,99487.15
2024-04-24T08:04:07.059Z,99487.14
2024-04-24T08:06:34.674Z,99488.09
2024-04-24T08:09:02.337Z,99486.54
2024-04-24T08:11:31.102Z,99483.02
2024-04-24T08:13:59.275Z,99477.27
2024-04-24T08:16:26.919Z,99476.02
2024-04-24T08:18:54.557Z,99472.60
2024-04-24T08:21:22.285Z,99474.23
2024-04-24T08:23:51.439Z,99469.73
2024-04-24T08:26:19.097Z,99462.09
2024-04-24T08:28:46.982Z,99460.60
2024-04-24T08:31:14.719Z,99455.75
2024-04-24T08:33:42.535Z,99452.14
2024-04-24T08:36:11.584Z,99445.38
2024-04-24T08:38:39.647Z,99449.81
2024-04-24T08:41:27.588Z,99443.27
2024-04-24T08:43:55.368Z,99443.45
2024-04-24T08:46:23.090Z,99438.23
2024-04-24T08:48:50.649Z,99437.15
2024-04-24T08:51:18.710Z,99427.06
2024-04-24T08:53:54.194Z,99424.31
2024-04-24T08:56:22.609Z,99417.71
2024-04-24T08:58:50.854Z,99411.73
2024-04-24T09:01:18.486Z,99404.38
2024-04-24T09:03:46.264Z,99404.78
2024-04-24T09:06:14.566Z,99406.61
2024-04-24T09:08:42.160Z,99401.85
2024-04-24T09:11:09.858Z,99399.74
2024-04-24T09:13:37.448Z,99392.98
2024-04-24T09:16:05.717Z,99392.42
2024-04-24T09:18:33.331Z,99393.27
2024-04-24T09:21:00.982Z,99392.81
2024-04-24T09:23:28.686Z,99392.16
2024-04-24T09:25:58.355Z,99388.21
2024-04-24T09:28:26.162Z,99387.66
2024-04-24T09:30:54.385Z,99383.13
2024-04-24T09:33:22.299Z,99375.71
2024-04-24T09:35:50.110Z,99372.00
2024-04-24T09:38:17.748Z,99371.67
2024-04-24T09:40:45.641Z,99364.95
2024-04-24T09:43:13.264Z,99358.91
2024-04-24T09:45:40.822Z,99357.33
2024-04-24T09:48:08.835Z,99358.86
2024-04-24T09:50:39.290Z,99355.61
2024-04-24T09:53:06.886Z,99352.69
2024-04-24T09:55:37.116Z,99350.21
2024-04-24T09:58:06.641Z,99345.39
2024-04-24T10:00:34.462Z,99339.48
2024-04-24T10:03:02.099Z,99341.16
2024-04-24T10:05:35.677Z,99337.61
2024-04-24T10:08:08.247Z,99340.04
2024-04-24T10:10:36.978Z,99334.98
2024-04-24T10:13:04.674Z,99333.27
2024-04-24T10:15:43.737Z,99333.44
2024-04-24T10:18:11.597Z,99333.65
2024-04-24T10:20:41.282Z,99324.45
2024-04-24T10:23:08.884Z,99322.40
2024-04-24T10:25:38.348Z,99320.39
2024-04-24T10:28:06.220Z,99317.70
2024-04-24T10:30:35.171Z,99317.34
2024-04-24T10:33:05.541Z,99322.44
2024-04-24T10:35:33.487Z,99317.92
2024-04-24T10:38:04.490Z,99319.33
2024-04-24T10:40:32.426Z,99320.35
2024-04-24T10:43:01.921Z,99310.83
2024-04-24T10:45:33.587Z,99312.42
2024-04-24T10:48:01.842Z,99315.14
2024-04-24T10:50:29.667Z,99313.84
2024-04-24T10:52:58.080Z,99315.56
2024-04-24T10:55:25.758Z,99319.06
2024-04-24T10:57:53.988Z,99320.15
2024-04-24T11:00:22.640Z,99315.66
2024-04-24T11:02:56.897Z,99310.38
2024-04-24T11:05:26.936Z,99309.16
2024-04-24T11:08:02.010Z,99309.09
2024-04-24T11:10:30.245Z,99308.33
2024-04-24T11:12:57.949Z,99306.66
2024-04-24T11:15:29.958Z,99304.46
2024-04-24T11:17:57.745Z,99305.46
2024-04-24T11:20:25.728Z,99303.42
2024-04-24T11:22:53.512Z,99299.71
2024-04-24T11:25:21.145Z,99294.81
2024-04-24T11:27:48.752Z,99292.32
2024-04-24T11:30:17.472Z,99295.23
2024-04-24T11:32:52.178Z,99292.29
2024-04-24T11:35:22.104Z,99288.82
2024-04-24T11:37:50.075Z,99289.35
2024-04-24T11:40:17.711Z,99283.90
2024-04-24T11:42:45.661Z,99277.77
2024-04-24T11:45:13.660Z,99282.89
2024-04-24T11:47:41.304Z,99281.77
2024-04-24T11:50:10.227Z,99280.38
2024-04-24T11:52:38.331Z,99273.11
2024-04-24T11:55:06.477Z,99269.02
2024-04-24T11:57:39.303Z,99263.05
2024-04-24T12:00:07.615Z,99267.66
2024-04-24T12:02:38.232Z,99265.48
2024-04-24T12:05:06.538Z,99262.86
2024-04-24T12:07:34.243Z,99258.46
2024-04-24T12:10:01.954Z,99259.79
2024-04-24T12:12:29.668Z,99259.05
2024-04-24T12:14:59.870Z,99258.30
2024-04-24T12:17:27.636Z,99260.15
2024-04-24T12:19:55.317Z,99259.60
2024-04-24T12:22:23.244Z,99256.14
2024-04-24T12:24:50.825Z,99260.29
2024-04-24T12:27:22.800Z,99261.61
2024-04-24T12:29:50.447Z,99258.86
2024-04-24T12:32:18.094Z,99261.37
2024-04-24T12:34:45.936Z,99251.83
2024-04-24T12:37:13.528Z,99251.54
2024-04-24T12:39:41.453Z,99248.70
2024-04-24T12:42:09.131Z,99248.71
2024-04-24T12:44:37.287Z,99252.20
2024-04-24T12:47:05.270Z,99246.23
2024-04-24T12:49:33.344Z,99246.95
2024-04-24T12:52:00.838Z,99244.11
2024-04-24T12:54:28.797Z,99245.30
2024-04-24T12:56:56.866Z,99243.13
2024-04-24T12:59:26.969Z,99242.17
2024-04-24T13:01:54.702Z,99239.56
2024-04-24T13:04:22.460Z,99239.36
2024-04-24T13:06:50.023Z,99237.16
2024-04-24T13:09:18.008Z,99238.39
2024-04-24T13:11:46.195Z,99236.99
2024-04-24T13:14:13.940Z,99236.73
2024-04-24T13:16:42.051Z,99238.00
2024-04-24T13:19:09.819Z,99234.02
2024-04-24T13:21:37.487Z,99237.52
2024-04-24T13:24:05.219Z,99240.52
2024-04-24T13:26:33.436Z,99234.58
2024-04-24T13:29:01.107Z,99238.46
2024-04-24T13:31:28.704Z,99241.10
2024-04-24T13:33:56.415Z,99240.36
2024-04-24T13:36:24.133Z,99238.63
2024-04-24T13:38:55.190Z,99237.02
2024-04-24T13:41:22.775Z,99235.36
2024-04-24T13:43:53.213Z,99232.68
2024-04-24T13:46:21.288Z,99232.06
2024-04-24T13:48:49.087Z,99228.05
2024-04-24T13:51:16.798Z,99231.46
2024-04-24T13:53:44.396Z,99230.88
2024-04-24T13:56:11.927Z,99226.70
2024-04-24T13:58:39.655Z,99230.95
2024-04-24T14:01:07.902Z,99231.90
2024-04-24T14:03:35.809Z,99228.98
2024-04-24T14:06:03.763Z,99229.30
2024-04-24T14:08:31.392Z,99224.52
2024-04-24T14:10:59.480Z,99222.09
2024-04-24T14:13:27.037Z,99217.16
2024-04-24T14:15:54.722Z,99218.84
2024-04-24T14:18:22.294Z,99223.79
2024-04-24T14:20:49.859Z,99219.09
2024-04-24T14:23:17.428Z,99215.67
2024-04-24T14:25:45.026Z,99213.73
2024-04-24T14:28:12.654Z,99217.46
2024-04-24T14:30:40.303Z,99219.42
2024-04-24T14:33:08.066Z,99213.04
2024-04-24T14:35:35.867Z,99210.23
2024-04-24T14:38:03.832Z,99200.83
2024-04-24T14:40:31.402Z,99201.04
2024-04-24T14:42:58.963Z,99194.96
2024-04-24T14:45:26.586Z,99197.80
2024-04-24T14:47:54.228Z,99200.19
2024-04-24T14:50:21.947Z,99195.96
2024-04-24T14:52:49.778Z,99194.48
2024-04-24T14:55:17.495Z,99196.48
2024-04-24T14:57:45.045Z,99192.83
2024-04-24T15:00:13.772Z,99192.23
2024-04-24T15:02:41.846Z,99190.90
2024-04-24T15:05:09.394Z,99192.98
2024-04-24T15:07:39.482Z,99193.33
2024-04-24T15:10:08.443Z,99191.04
2024-04-24T15:12:36.133Z,99189.61
2024-04-24T15:15:04.180Z,99182.94
2024-04-24T15:17:32.753Z,99187.27
2024-04-24T15:20:00.626Z,99182.47
2024-04-24T15:22:28.463Z,99175.50
2024-04-24T15:24:56.104Z,99175.83
2024-04-24T15:27:24.913Z,99173.30
2024-04-24T15:29:52.440Z,99162.10
2024-04-24T15:32:20.137Z,99162.16
2024-04-24T15:34:47.854Z,99167.27
2024-04-24T15:37:15.425Z,99167.52
2024-04-24T15:39:43.741Z,99158.69
2024-04-24T15:42:11.384Z,99160.52
2024-04-24T15:44:39.266Z,99160.91
2024-04-24T15:47:07.111Z,99158.71
2024-04-24T15:49:34.772Z,99159.64
2024-04-24T15:52:02.413Z,99160.59
2024-04-24T15:54:29.958Z,99161.06
2024-04-24T15:56:57.594Z,99158.80
2024-04-24T15:59:25.299Z,99156.64
2024-04-24T16:01:52.796Z,99160.23
2024-04-24T16:04:20.769Z,99163.06
2024-04-24T16:06:48.360Z,99160.35
2024-04-24T16:09:15.979Z,99162.13
2024-04-24T16:11:43.851Z,99158.13
2024-04-24T16:14:12.284Z,99157.90
2024-04-24T16:16:40.874Z,99161.74
2024-04-24T16:19:10.392Z,99160.95
2024-04-24T16:21:39.549Z,99161.81
2024-04-24T16:24:07.538Z,99163.30
2024-04-24T16:26:35.180Z,99160.90
2024-04-24T16:29:03.393Z,99157.90
2024-04-24T16:31:30.965Z,99160.54
2024-04-24T16:33:58.623Z,99165.40
2024-04-24T16:36:26.292Z,99157.77
2024-04-24T16:38:53.962Z,99159.23
2024-04-24T16:41:28.969Z,99161.89
2024-04-24T16:43:58.681Z,99159.11
2024-04-24T16:46:26.308Z,99166.08
2024-04-24T16:48:54.078Z,99162.92
2024-04-24T16:51:21.622Z,99164.92
2024-04-24T16:53:49.254Z,99164.02
2024-04-24T16:56:20.087Z,99168.70
2024-04-24T16:58:47.638Z,99164.29
2024-04-24T17:01:16.641Z,99165.73
2024-04-24T17:03:44.821Z,99166.19
2024-04-24T17:06:12.871Z,99169.97
2024-04-24T17:08:40.821Z,99172.42
2024-04-24T17:11:08.750Z,99175.73
2024-04-24T17:13:36.464Z,99171.42
2024-04-24T17:16:04.441Z,99177.48
2024-04-24T17:18:32.321Z,99174.19
2024-04-24T17:21:00.348Z,99172.74
2024-04-24T17:23:28.092Z,99175.71
2024-04-24T17:25:55.684Z,99178.91
2024-04-24T17:28:23.366Z,99183.13
2024-04-24T17:30:51.004Z,99176.77
2024-04-24T17:33:18.601Z,99175.75
2024-04-24T17:35:50.250Z,99175.39
2024-04-24T17:38:18.831Z,99173.99
2024-04-24T17:40:46.491Z,99172.80
2024-04-24T17:43:14.110Z,99177.23
2024-04-24T17:45:41.937Z,99176.47
2024-04-24T17:48:09.767Z,99178.20
2024-04-24T17:50:37.505Z,99175.02
2024-04-24T17:53:05.559Z,99179.73
2024-04-24T17:55:33.612Z,99181.69
2024-04-24T17:58:01.397Z,99180.71
2024-04-24T18:00:29.105Z,99179.11
2024-04-24T18:02:56.683Z,99185.59
2024-04-24T18:05:24.643Z,99181.52
2024-04-24T18:07:52.290Z,99189.60
2024-04-24T18:10:19.914Z,99194.85
2024-04-24T18:12:49.120Z,99188.85
2024-04-24T18:15:17.105Z,99192.16
2024-04-24T18:17:44.749Z,99199.19
2024-04-24T18:20:12.392Z,99198.81
2024-04-24T18:22:40.117Z,99197.29
2024-04-24T18:25:07.700Z,99198.90
2024-04-24T18:27:35.431Z,99203.02
2024-04-24T18:30:03.218Z,99203.33
2024-04-24T18:32:31.012Z,99201.70
2024-04-24T18:34:58.958Z,99203.02
2024-04-24T18:37:26.634Z,99205.27
2024-04-24T18:39:54.202Z,99205.02
2024-04-24T18:42:21.797Z,99213.77
2024-04-24T18:44:49.624Z,99205.94
2024-04-24T18:47:21.590Z,99208.96
2024-04-24T18:49:49.604Z,99213.92
2024-04-24T18:52:17.500Z,99209.39
2024-04-24T18:54:45.317Z,99214.25
2024-04-24T18:57:12.833Z,99214.63
2024-04-24T18:59:40.762Z,99215.98
2024-04-24T19:02:08.833Z,99215.48
2024-04-24T19:04:36.779Z,99213.96
2024-04-24T19:07:04.524Z,99211.52
2024-04-24T19:09:32.062Z,99216.45
2024-04-24T19:12:01.364Z,99207.86
2024-04-24T19:14:29.102Z,99202.96
2024-04-24T19:16:58.696Z,99200.95
2024-04-24T19:19:28.363Z,99198.16
2024-04-24T19:21:56.045Z,99204.10
2024-04-24T19:24:24.456Z,99201.50
2024-04-24T19:26:52.055Z,99206.38
2024-04-24T19:29:19.966Z,99208.95
2024-04-24T19:31:47.640Z,99207.16
2024-04-24T19:34:15.306Z,99212.94
2024-04-24T19:36:42.799Z,99207.02
2024-04-24T19:39:10.610Z,99211.36
2024-04-24T19:41:38.447Z,99210.45
2024-04-24T19:44:08.362Z,99209.75
2024-04-24T19:46:36.381Z,99210.14
2024-04-24T19:49:04.083Z,99207.29
2024-04-24T19:51:31.754Z,99208.88
2024-04-24T19:53:59.332Z,99211.86
2024-04-24T19:56:27.213Z,99212.51
2024-04-24T19:58:54.944Z,99211.98
2024-04-24T20:01:22.568Z,99216.81
2024-04-24T20:03:50.994Z,99217.36
2024-04-24T20:06:19.225Z,99221.08
2024-04-24T20:08:46.892Z,99217.66
2024-04-24T20:11:14.561Z,99216.64
2024-04-24T20:13:42.122Z,99224.67
2024-04-24T20:16:09.880Z,99221.23
2024-04-24T20:18:38.862Z,99224.50
2024-04-24T20:21:15.838Z,99214.90
2024-04-24T20:23:43.947Z,99219.71
2024-04-24T20:26:14.255Z,99217.58
2024-04-24T20:28:41.982Z,99216.02
2024-04-24T20:31:09.657Z,99218.27
2024-04-24T20:33:37.426Z,99216.71
2024-04-24T20:36:15.148Z,99215.33
2024-04-24T20:38:43.293Z,99216.71
2024-04-24T20:41:10.912Z,99214.30
2024-04-24T20:43:38.470Z,99217.92
2024-04-24T20:46:06.067Z,99215.94
2024-04-24T20:48:33.850Z,99220.28
2024-04-24T20:51:01.584Z,99224.59
2024-04-24T20:53:29.399Z,99221.88
2024-04-24T20:55:56.990Z,99217.96
2024-04-24T20:58:24.650Z,99219.56
2024-04-24T21:00:52.263Z,99218.48
2024-04-24T21:03:25.372Z,99222.52
2024-04-24T21:05:53.539Z,99227.44
2024-04-24T21:08:21.296Z,99227.91
2024-04-24T21:10:48.973Z,99232.52
2024-04-24T21:13:17.165Z,99239.21
2024-04-24T21:15:44.737Z,99238.55
2024-04-24T21:18:12.431Z,99236.99
2024-04-24T21:20:40.233Z,99242.48
2024-04-24T21:23:07.908Z,99245.73
2024-04-24T21:25:35.841Z,99247.80
2024-04-24T21:28:04.236Z,99248.77
2024-04-24T21:30:31.949Z,99247.59
2024-04-24T21:32:59.727Z,99246.80
2024-04-24T21:35:27.322Z,99240.83
2024-04-24T21:37:54.861Z,99243.86
2024-04-24T21:40:22.552Z,99249.86
2024-04-24T21:42:50.195Z,99252.32
2024-04-24T21:45:17.980Z,99252.41
2024-04-24T21:47:45.624Z,99252.58
2024-04-24T21:50:13.287Z,99255.16
2024-04-24T21:52:40.875Z,99254.81
2024-04-24T21:55:08.573Z,99258.65
2024-04-24T21:57:36.195Z,99263.60
2024-04-24T22:00:04.352Z,99260.58
2024-04-24T22:02:39.558Z,99259.48
2024-04-24T22:05:07.520Z,99258.42
2024-04-24T22:07:35.052Z,99260.58
2024-04-24T22:10:02.784Z,99260.69
2024-04-24T22:12:30.457Z,99263.48
2024-04-24T22:14:58.343Z,99260.58
2024-04-24T22:17:28.345Z,99259.77
2024-04-24T22:19:56.268Z,99258.92
2024-04-24T22:22:24.018Z,99263.23
2024-04-24T22:24:52.964Z,99263.52
2024-04-24T22:27:20.685Z,99257.92
2024-04-24T22:29:48.222Z,99257.38
2024-04-24T22:32:16.454Z,99253.02
2024-04-24T22:34:44.169Z,99253.27
2024-04-24T22:37:11.787Z,99251.88
2024-04-24T22:39:39.509Z,99249.17
2024-04-24T22:42:07.236Z,99245.05
2024-04-24T22:44:34.798Z,99247.04
2024-04-24T22:47:02.637Z,99246.77
2024-04-24T22:49:30.148Z,99249.25
2024-04-24T22:51:58.815Z,99248.48
2024-04-24T22:54:26.307Z,99247.80
2024-04-24T22:56:53.919Z,99250.27
2024-04-24T22:59:21.620Z,99247.39
2024-04-24T23:01:53.742Z,99245.36
2024-04-24T23:04:21.331Z,99244.74
2024-04-24T23:06:54.292Z,99246.67
2024-04-24T23:09:21.924Z,99248.38
2024-04-24T23:11:49.608Z,99245.23
2024-04-24T23:14:17.191Z,99238.38
2024-04-24T23:16:45.270Z,99236.58
2024-04-24T23:19:12.999Z,99237.10
2024-04-24T23:21:40.501Z,99230.27
2024-04-24T23:24:08.391Z,99229.29
2024-04-24T23:26:36.125Z,99229.92
2024-04-24T23:29:03.891Z,99231.48
2024-04-24T23:31:31.645Z,99231.83
2024-04-24T23:33:59.254Z,99231.29
2024-04-24T23:36:27.002Z,99233.44
2024-04-24T23:38:55.048Z,99227.83
2024-04-24T23:41:22.750Z,99226.95
2024-04-24T23:43:50.528Z,99227.05
2024-04-24T23:46:20.149Z,99225.22
2024-04-24T23:48:47.865Z,99225.33
2024-04-24T23:51:15.518Z,99223.75
2024-04-24T23:53:43.160Z,99219.52
2024-04-24T23:56:10.708Z,99221.66
2024-04-24T23:58:38.405Z,99214.45
